Time;durP1;ratioP1;P1;durP2;ratioP2;P2;SDS_P1;SDS_P2;PMS_P1;PMS_P2;Temp;Humidity;BMP_temperature;BMP_pressure;BME280_temperature;BME280_humidity;BME280_pressure;Samples;Min_cycle;Max_cycle;Signal;HPM_P1;HPM_P2
2022/06/28 00:02:01;;;;;;;12.93;7.85;;;;;;;27.73;62.03;100822.45;1686271;84;21289;-72
2022/06/28 00:04:29;;;;;;;14.60;8.05;;;;;;;27.61;61.55;100830.44;1686802;84;21016;-72
2022/06/28 00:06:57;;;;;;;14.80;8.48;;;;;;;27.57;61.68;100827.81;1686898;84;21044;-71
2022/06/28 00:09:25;;;;;;;15.30;8.78;;;;;;;27.47;62.00;100824.55;1677575;85;21045;-72
2022/06/28 00:11:52;;;;;;;11.53;7.60;;;;;;;27.40;61.76;100825.73;1679935;84;21139;-72
2022/06/28 00:17:06;;;;;;;14.75;7.87;;;;;;;27.33;61.47;100824.27;1683447;84;21099;-71
2022/06/28 00:19:34;;;;;;;14.10;7.53;;;;;;;27.30;61.72;100822.45;1680295;85;21036;-72
2022/06/28 00:22:02;;;;;;;15.38;7.97;;;;;;;27.33;61.75;100819.45;1680211;85;21067;-72
2022/06/28 00:24:30;;;;;;;13.45;7.72;;;;;;;27.30;62.05;100821.14;1681772;85;21056;-72
2022/06/28 00:26:59;;;;;;;15.63;8.20;;;;;;;27.20;62.79;100821.80;1677041;85;21547;-72
2022/06/28 00:29:26;;;;;;;15.30;8.23;;;;;;;27.09;63.23;100822.95;1679334;85;21091;-72
2022/06/28 00:31:54;;;;;;;14.90;8.35;;;;;;;27.06;63.37;100824.63;1678321;84;21111;-72
2022/06/28 00:34:22;;;;;;;13.78;8.65;;;;;;;27.09;63.37;100823.80;1660645;85;21083;-72
2022/06/28 00:36:49;;;;;;;16.32;8.08;;;;;;;27.00;63.57;100821.33;1680030;84;21139;-72
2022/06/28 00:39:18;;;;;;;15.48;8.40;;;;;;;27.01;63.44;100828.25;1685016;84;21162;-72
2022/06/28 00:41:47;;;;;;;12.20;7.87;;;;;;;26.93;63.56;100828.61;1679245;85;21095;-72
2022/06/28 00:44:14;;;;;;;15.63;8.30;;;;;;;27.08;63.51;100831.88;1684747;84;21131;-71
2022/06/28 00:46:42;;;;;;;16.02;8.10;;;;;;;26.90;63.80;100834.20;1685950;84;21159;-72
2022/06/28 00:49:11;;;;;;;13.55;8.70;;;;;;;26.81;64.63;100834.41;1680458;85;21040;-71
2022/06/28 00:51:39;;;;;;;17.62;8.80;;;;;;;26.62;65.18;100834.22;1686125;84;21111;-72
2022/06/28 00:54:07;;;;;;;17.32;8.30;;;;;;;26.73;64.21;100843.97;1681695;84;21076;-71
2022/06/28 00:56:34;;;;;;;17.10;8.55;;;;;;;26.64;63.73;100841.48;1683163;85;21004;-72
2022/06/28 00:59:01;;;;;;;13.68;8.68;;;;;;;26.73;62.93;100845.79;1679155;84;21159;-72
2022/06/28 01:01:30;;;;;;;19.80;8.95;;;;;;;26.90;62.30;100853.20;1678852;85;21072;-72
2022/06/28 01:03:57;;;;;;;19.07;9.15;;;;;;;26.72;63.08;100848.08;1680488;85;21104;-72
2022/06/28 01:06:24;;;;;;;14.93;8.55;;;;;;;26.68;63.42;100845.44;1680867;84;21075;-71
2022/06/28 01:08:52;;;;;;;15.20;8.60;;;;;;;26.59;63.97;100841.98;1683196;84;21024;-71
2022/06/28 01:11:21;;;;;;;15.80;9.10;;;;;;;26.41;64.63;100842.59;1715348;83;21575;-72
2022/06/28 01:13:55;;;;;;;17.23;9.60;;;;;;;26.34;65.36;100840.61;1713492;83;20984;-72
2022/06/28 01:16:24;;;;;;;11.97;8.78;;;;;;;26.33;65.71;100841.58;1711371;83;21079;-72
2022/06/28 01:18:53;;;;;;;15.60;8.90;;;;;;;26.25;66.02;100840.75;1684775;84;21580;-72
2022/06/28 01:21:27;;;;;;;15.68;9.50;;;;;;;26.33;65.86;100846.86;1657703;85;21082;-71
2022/06/28 01:23:56;;;;;;;17.00;8.98;;;;;;;26.27;65.55;100846.70;1674420;84;21031;-71
2022/06/28 01:26:26;;;;;;;17.80;9.30;;;;;;;26.24;65.24;100850.96;1656236;85;21143;-71
2022/06/28 01:28:53;;;;;;;23.67;10.25;;;;;;;26.34;65.20;100840.61;1666733;85;21013;-72
2022/06/28 01:31:23;;;;;;;17.20;10.10;;;;;;;26.41;64.65;100837.31;1656245;85;21582;-72
2022/06/28 01:33:52;;;;;;;18.82;9.68;;;;;;;26.24;64.96;100833.80;1714968;83;21035;-72
2022/06/28 01:36:20;;;;;;;15.95;9.28;;;;;;;26.34;64.84;100831.88;1715615;83;21131;-72
2022/06/28 01:38:48;;;;;;;15.60;9.60;;;;;;;26.16;65.44;100835.96;1658878;85;21096;-72
2022/06/28 01:41:33;;;;;;;17.48;9.93;;;;;;;26.12;66.30;100826.22;1683040;85;21646;-71
2022/06/28 01:44:08;;;;;;;17.05;10.05;;;;;;;25.72;67.13;100828.20;1681168;85;21579;-72
2022/06/28 01:46:38;;;;;;;17.30;9.58;;;;;;;25.81;66.24;100831.69;1680979;85;21596;-72
2022/06/28 01:49:08;;;;;;;17.92;9.93;;;;;;;25.92;65.88;100826.98;1650945;85;21056;-72
2022/06/28 01:51:36;;;;;;;17.90;10.18;;;;;;;25.81;66.39;100831.69;1681276;85;21012;-72
2022/06/28 01:54:05;;;;;;;17.48;10.13;;;;;;;25.78;66.94;100828.38;1681628;85;21560;-72
2022/06/28 01:56:35;;;;;;;15.63;10.45;;;;;;;25.78;67.40;100824.42;1715838;83;21044;-71
2022/06/28 01:59:23;;;;;;;17.55;10.48;;;;;;;25.68;68.05;100828.19;1717864;82;21043;-71
2022/06/28 02:01:55;;;;;;;21.75;11.53;;;;;;;25.65;68.20;100827.17;1708001;83;21072;-71
2022/06/28 02:04:28;;;;;;;18.55;11.05;;;;;;;25.53;68.88;100823.51;1718553;83;21056;-71
2022/06/28 02:07:00;;;;;;;19.70;11.03;;;;;;;25.50;69.52;100826.95;1711360;83;21044;-72
2022/06/28 02:09:29;;;;;;;24.20;12.07;;;;;;;25.43;70.23;100825.94;1715272;82;21068;-71
2022/06/28 02:11:56;;;;;;;17.55;11.70;;;;;;;25.41;71.42;100826.09;1717910;83;21055;-71
2022/06/28 02:14:25;;;;;;;20.48;12.07;;;;;;;25.53;72.15;100830.10;1714958;83;21151;-71
2022/06/28 02:16:53;;;;;;;25.35;12.20;;;;;;;25.62;72.55;100832.27;1692520;83;21004;-71
2022/06/28 02:19:21;;;;;;;23.95;11.50;;;;;;;25.69;72.29;100827.19;1715265;83;21071;-71
2022/06/28 02:21:48;;;;;;;21.50;12.30;;;;;;;25.56;72.84;100819.22;1716089;82;21020;-71
2022/06/28 02:24:16;;;;;;;20.08;11.93;;;;;;;25.61;72.53;100816.14;1718674;83;21064;-71
2022/06/28 02:26:43;;;;;;;20.90;12.30;;;;;;;25.56;73.04;100827.63;1717184;83;21008;-71
2022/06/28 02:29:10;;;;;;;22.90;12.30;;;;;;;25.61;73.31;100827.15;1715873;83;21527;-71
2022/06/28 02:31:37;;;;;;;19.52;12.00;;;;;;;25.58;74.37;100832.25;1714774;83;21126;-71
2022/06/28 02:34:05;;;;;;;20.65;12.25;;;;;;;25.62;74.96;100826.19;1715827;82;21032;-71
2022/06/28 02:41:49;;;;;;;20.40;12.15;;;;;;;25.45;75.83;100829.24;1713841;83;21134;-71
2022/06/28 02:44:17;;;;;;;25.72;12.70;;;;;;;25.60;76.70;100823.70;1716577;82;21181;-72
2022/06/28 02:46:46;;;;;;;21.82;12.03;;;;;;;25.77;76.45;100821.47;1714099;82;21665;-72
2022/06/28 02:49:15;;;;;;;19.27;12.33;;;;;;;25.83;75.88;100820.48;1715953;83;21561;-72
2022/06/28 02:51:42;;;;;;;21.02;12.78;;;;;;;25.85;76.02;100818.52;1716202;82;21535;-72
2022/06/28 02:54:10;;;;;;;21.37;12.82;;;;;;;25.91;75.23;100827.13;1718370;83;21071;-72
2022/06/28 02:56:37;;;;;;;22.30;13.48;;;;;;;26.16;74.11;100824.09;1716525;83;21567;-72
2022/06/28 02:59:05;;;;;;;21.97;12.65;;;;;;;26.25;73.37;100824.92;1719469;83;21039;-72
2022/06/28 03:01:32;;;;;;;23.95;12.68;;;;;;;26.35;73.51;100828.23;1720654;83;21808;-72
2022/06/28 03:04:00;;;;;;;22.37;12.40;;;;;;;26.32;73.03;100833.85;1718202;83;21146;-72
2022/06/28 03:06:27;;;;;;;25.05;13.93;;;;;;;26.45;71.43;100829.41;1715328;83;21079;-72
2022/06/28 03:08:54;;;;;;;25.80;13.88;;;;;;;26.49;70.66;100834.19;1714992;83;21503;-72
2022/06/28 03:11:22;;;;;;;24.45;13.50;;;;;;;26.44;69.15;100833.87;1713378;83;21047;-72
2022/06/28 03:13:50;;;;;;;23.87;14.13;;;;;;;26.32;68.99;100838.62;1717036;83;21143;-72
2022/06/28 03:16:17;;;;;;;23.35;13.28;;;;;;;27.33;65.90;100840.13;1714948;83;21071;-71
2022/06/28 03:18:44;;;;;;;22.02;13.00;;;;;;;27.41;65.30;100833.16;1721300;83;21055;-72
2022/06/28 03:21:12;;;;;;;21.02;12.53;;;;;;;27.50;64.83;100836.11;1718018;82;21544;-72
2022/06/28 03:23:39;;;;;;;22.85;12.03;;;;;;;27.57;64.57;100841.88;1714368;83;21103;-71
2022/06/28 03:26:07;;;;;;;23.45;12.85;;;;;;;26.92;66.26;100841.97;1713048;83;21087;-72
2022/06/28 03:28:34;;;;;;;24.85;12.28;;;;;;;26.87;66.82;100842.48;1716023;82;21047;-72
2022/06/28 03:31:01;;;;;;;25.82;13.35;;;;;;;26.85;66.22;100838.36;1713251;83;21063;-72
2022/06/28 03:33:29;;;;;;;22.58;13.20;;;;;;;26.90;65.70;100843.95;1714549;83;21071;-69
2022/06/28 03:35:57;;;;;;;24.40;13.20;;;;;;;27.10;65.28;100843.11;1716611;83;21043;-71
2022/06/28 03:38:25;;;;;;;25.95;12.93;;;;;;;27.14;65.13;100850.53;1714620;83;21091;-72
2022/06/28 03:41:02;;;;;;;23.62;12.85;;;;;;;27.25;64.56;100841.95;1712820;83;21149;-71
2022/06/28 03:43:29;;;;;;;21.55;12.80;;;;;;;27.25;64.38;100841.95;1716517;83;21048;-71
2022/06/28 03:45:57;;;;;;;24.65;12.85;;;;;;;27.22;63.67;100844.41;1717095;82;21055;-71
2022/06/28 03:48:32;;;;;;;19.95;12.85;;;;;;;27.46;63.38;100840.09;1711050;83;21051;-72
2022/06/28 03:51:18;;;;;;;24.07;12.55;;;;;;;27.56;62.93;100843.36;1715847;83;21074;-71
2022/06/28 03:53:53;;;;;;;21.12;12.33;;;;;;;27.55;62.94;100843.02;1668581;83;21071;-71
2022/06/28 03:56:22;;;;;;;23.52;12.23;;;;;;;27.49;62.84;100835.27;1714225;83;21072;-72
2022/06/28 03:58:50;;;;;;;20.90;12.23;;;;;;;27.41;63.31;100828.69;1694550;83;21139;-71
2022/06/28 04:01:17;;;;;;;25.52;12.25;;;;;;;27.52;63.44;100834.94;1715961;83;21520;-68
2022/06/28 04:03:44;;;;;;;22.17;12.47;;;;;;;27.57;63.12;100839.70;1719676;83;21551;-69
2022/06/28 04:06:12;;;;;;;24.07;12.25;;;;;;;27.40;62.59;100836.30;1698444;83;21555;-69
2022/06/28 04:08:39;;;;;;;24.27;11.83;;;;;;;27.59;62.67;100841.69;1719029;83;21094;-68
2022/06/28 04:11:16;;;;;;;21.23;11.83;;;;;;;27.61;61.70;100842.84;1721812;83;21114;-68
2022/06/28 04:13:52;;;;;;;23.73;11.35;;;;;;;27.81;61.35;100840.62;1713386;83;21552;-69
2022/06/28 04:16:22;;;;;;;19.57;11.18;;;;;;;27.85;60.27;100840.09;1715335;83;21031;-69
2022/06/28 04:18:50;;;;;;;20.25;10.75;;;;;;;27.81;60.29;100837.97;1717592;83;21046;-69
2022/06/28 04:21:25;;;;;;;18.10;10.30;;;;;;;27.99;59.65;100832.46;1716038;83;21156;-69
2022/06/28 04:23:54;;;;;;;20.23;10.72;;;;;;;28.11;59.38;100842.47;1703974;83;21075;-69
2022/06/28 04:26:21;;;;;;;16.32;10.55;;;;;;;27.96;59.81;100839.75;1718694;83;21597;-68
2022/06/28 04:28:48;;;;;;;13.75;10.23;;;;;;;28.00;58.95;100839.38;1716424;83;21059;-69
2022/06/28 04:31:18;;;;;;;17.82;10.08;;;;;;;28.23;58.94;100844.22;1714256;83;21047;-69
2022/06/28 04:33:45;;;;;;;18.10;9.55;;;;;;;28.26;58.39;100845.69;1719074;83;21122;-69
2022/06/28 04:36:13;;;;;;;18.85;10.43;;;;;;;28.51;58.46;100855.15;1720399;83;21004;-69
2022/06/28 04:38:43;;;;;;;18.35;10.00;;;;;;;28.47;58.67;100856.47;1717875;83;21062;-69
2022/06/28 04:41:14;;;;;;;19.07;10.20;;;;;;;28.53;57.51;100858.95;1716103;83;21039;-69
2022/06/28 04:43:56;;;;;;;18.35;10.58;;;;;;;28.50;57.90;100852.16;1719979;83;21056;-69
2022/06/28 04:46:34;;;;;;;17.65;10.05;;;;;;;28.62;57.83;100849.92;1715892;82;21059;-69
2022/06/28 04:49:03;;;;;;;16.00;9.38;;;;;;;28.72;58.24;100842.55;1712683;83;21143;-71
2022/06/28 04:51:32;;;;;;;16.25;9.85;;;;;;;28.66;57.04;100847.75;1682487;85;21013;-71
2022/06/28 04:54:00;;;;;;;18.85;9.43;;;;;;;28.69;57.31;100849.55;1685673;84;21083;-72
2022/06/28 04:56:28;;;;;;;19.65;9.70;;;;;;;28.79;57.04;100849.79;1661897;85;21532;-71
2022/06/28 04:58:56;;;;;;;20.17;9.63;;;;;;;28.91;56.64;100844.38;1681574;85;21087;-71
2022/06/28 05:01:24;;;;;;;16.32;9.58;;;;;;;28.48;56.01;100851.98;1683748;85;21071;-71
2022/06/28 05:03:51;;;;;;;14.80;9.50;;;;;;;28.50;56.30;100850.84;1681222;85;21606;-72
2022/06/28 05:06:35;;;;;;;19.60;10.05;;;;;;;28.63;56.00;100851.59;1632281;87;21071;-71
2022/06/28 05:09:03;;;;;;;19.60;9.98;;;;;;;28.60;56.06;100853.76;1670127;84;21098;-71
2022/06/28 05:11:30;;;;;;;22.25;9.58;;;;;;;28.63;56.50;100865.31;1686947;84;21084;-72
2022/06/28 05:14:09;;;;;;;18.87;10.18;;;;;;;28.83;55.65;100859.84;1656048;86;21055;-71
2022/06/28 05:16:37;;;;;;;19.87;10.25;;;;;;;29.08;56.08;100863.11;1677488;85;21055;-71
2022/06/28 05:19:04;;;;;;;18.57;9.70;;;;;;;29.00;55.65;100863.70;1657024;86;21048;-72
2022/06/28 05:21:33;;;;;;;19.42;9.75;;;;;;;28.96;55.68;100867.20;1657640;86;21106;-71
2022/06/28 05:24:01;;;;;;;18.10;10.18;;;;;;;28.87;55.54;100861.13;1655154;86;21067;-71
2022/06/28 05:26:36;;;;;;;19.70;9.70;;;;;;;28.81;55.53;100857.87;1656418;86;21607;-71
2022/06/28 05:29:12;;;;;;;15.53;9.50;;;;;;;28.93;55.83;100858.27;1657273;86;21504;-71
2022/06/28 05:31:40;;;;;;;18.17;9.83;;;;;;;29.06;55.08;100871.74;1655609;86;21098;-71
2022/06/28 05:34:08;;;;;;;17.98;9.35;;;;;;;29.22;55.50;100868.14;1658057;86;21018;-69
2022/06/28 05:36:37;;;;;;;16.45;8.88;;;;;;;29.42;54.53;100864.45;1658514;86;21603;-69
2022/06/28 05:39:05;;;;;;;16.82;9.80;;;;;;;29.30;54.32;100870.71;1657921;86;21563;-69
2022/06/28 05:41:33;;;;;;;17.73;9.55;;;;;;;29.34;54.91;100869.34;1658074;86;21059;-69
2022/06/28 05:44:01;;;;;;;16.35;9.75;;;;;;;29.43;54.98;100868.73;1655919;86;21036;-69
2022/06/28 05:46:30;;;;;;;19.62;10.13;;;;;;;29.37;55.12;100854.88;1658414;85;21055;-68
2022/06/28 05:48:58;;;;;;;19.73;10.25;;;;;;;29.38;55.97;100858.35;1653605;86;21619;-69
2022/06/28 05:51:25;;;;;;;18.67;9.33;;;;;;;29.60;55.21;100861.41;1658167;85;21059;-69
2022/06/28 05:53:53;;;;;;;17.05;9.00;;;;;;;29.80;53.29;100854.25;1650070;86;21059;-70
2022/06/28 05:56:20;;;;;;;17.77;9.73;;;;;;;30.16;52.90;100852.92;1655857;86;21059;-69
2022/06/28 05:58:48;;;;;;;21.20;10.13;;;;;;;30.07;53.75;100855.36;1656867;86;21095;-69
2022/06/28 06:01:15;;;;;;;17.90;9.35;;;;;;;30.30;54.21;100849.94;1715051;82;21205;-69
2022/06/28 06:03:42;;;;;;;15.98;9.15;;;;;;;30.64;53.32;100846.58;1717676;83;21083;-69
2022/06/28 06:06:09;;;;;;;13.60;8.90;;;;;;;30.46;51.01;100852.34;1716938;83;21168;-68
2022/06/28 06:08:37;;;;;;;15.23;8.80;;;;;;;30.68;51.32;100842.52;1718023;83;21523;-68
2022/06/28 06:11:08;;;;;;;13.18;7.87;;;;;;;30.94;50.59;100849.91;1715274;83;21086;-69
2022/06/28 06:13:37;;;;;;;15.28;8.25;;;;;;;30.81;51.81;100853.75;1714992;83;21032;-69
2022/06/28 06:16:05;;;;;;;15.60;8.45;;;;;;;30.93;50.67;100850.91;1714230;83;21059;-69
2022/06/28 06:18:34;;;;;;;12.03;8.38;;;;;;;30.86;51.02;100845.19;1714362;83;21063;-69
2022/06/28 06:21:01;;;;;;;18.02;8.65;;;;;;;30.62;50.98;100853.07;1714708;83;21085;-68
2022/06/28 06:23:28;;;;;;;19.20;9.20;;;;;;;30.81;52.43;100852.94;1715449;82;21035;-69
2022/06/28 06:25:57;;;;;;;19.35;9.13;;;;;;;30.94;51.92;100848.58;1680741;84;21047;-69
2022/06/28 06:28:24;;;;;;;20.32;9.45;;;;;;;31.05;51.05;100847.73;1686997;85;21036;-69
2022/06/28 06:30:53;;;;;;;18.70;9.30;;;;;;;31.01;51.97;100845.96;1681119;85;21088;-69
2022/06/28 06:33:22;;;;;;;18.42;7.45;;;;;;;31.25;51.63;100846.53;1678295;84;21065;-69
2022/06/28 06:36:09;;;;;;;11.30;7.47;;;;;;;31.39;47.93;100846.92;1714304;83;21356;-69
2022/06/28 06:38:37;;;;;;;12.07;6.75;;;;;;;31.49;47.74;100846.56;1716332;83;21036;-69
2022/06/28 06:41:05;;;;;;;12.37;6.65;;;;;;;31.61;47.39;100842.34;1719901;83;21059;-69
2022/06/28 06:43:32;;;;;;;13.95;7.37;;;;;;;31.77;45.62;100844.34;1715566;83;21066;-68
2022/06/28 06:46:05;;;;;;;17.00;7.92;;;;;;;31.88;45.70;100841.92;1709746;82;21098;-69
2022/06/28 06:48:32;;;;;;;16.42;7.92;;;;;;;31.69;46.84;100850.16;1680157;85;21044;-69
2022/06/28 06:50:59;;;;;;;13.90;7.67;;;;;;;31.66;46.16;100847.07;1685580;84;21059;-69
2022/06/28 06:53:29;;;;;;;13.85;8.20;;;;;;;31.67;47.11;100846.03;1684666;85;21056;-69
2022/06/28 06:55:57;;;;;;;13.83;7.08;;;;;;;31.48;46.98;100850.26;1682606;84;21503;-69
2022/06/28 06:58:24;;;;;;;15.05;6.95;;;;;;;31.65;47.20;100851.58;1684459;84;21060;-69
2022/06/28 07:00:52;;;;;;;17.12;6.97;;;;;;;31.83;46.66;100852.34;1659331;86;21107;-69
2022/06/28 07:03:19;;;;;;;13.83;6.45;;;;;;;32.27;45.80;100846.25;1654225;86;21518;-69
2022/06/28 07:05:47;;;;;;;12.80;6.58;;;;;;;32.45;42.93;100854.47;1709217;83;21118;-69
2022/06/28 07:08:16;;;;;;;11.18;6.20;;;;;;;32.88;43.79;100857.27;1715545;83;21523;-70
2022/06/28 07:10:52;;;;;;;10.63;6.42;;;;;;;32.87;43.26;100854.30;1713736;81;21323;-69
2022/06/28 07:25:33;;;;;;;15.65;7.12;;;;;;;33.09;43.40;100860.23;1766126;80;21066;-71
2022/06/28 07:28:01;;;;;;;10.00;6.35;;;;;;;33.26;42.67;100862.77;1778849;80;21027;-71
2022/06/28 07:30:28;;;;;;;11.70;5.00;;;;;;;33.21;44.60;100851.89;1769083;80;20999;-71
2022/06/28 07:32:55;;;;;;;9.18;4.40;;;;;;;33.72;38.58;100853.83;1767290;80;20988;-70
2022/06/28 07:35:24;;;;;;;9.23;4.72;;;;;;;33.90;38.58;100854.95;1761154;80;21075;-71
2022/06/28 07:37:53;;;;;;;10.65;4.50;;;;;;;33.79;38.86;100854.31;1743946;80;20979;-71
2022/06/28 07:40:22;;;;;;;8.43;5.37;;;;;;;34.06;38.27;100855.78;1758167;80;21539;-71
2022/06/28 07:43:08;;;;;;;10.75;5.05;;;;;;;34.41;39.07;100856.73;1744346;81;21456;-71
2022/06/28 07:45:39;;;;;;;10.63;4.62;;;;;;;34.08;37.88;100852.38;1745052;79;21028;-70
2022/06/28 07:48:09;;;;;;;11.35;4.70;;;;;;;33.95;39.26;100843.66;1740101;81;21071;-70
2022/06/28 07:53:23;;;;;;;9.48;4.12;;;;;;;34.17;39.26;100847.66;1741925;81;21012;-70
2022/06/28 07:56:03;;;;;;;9.40;4.62;;;;;;;34.01;37.24;100852.14;1705566;83;21091;-70
2022/06/28 07:58:39;;;;;;;8.38;4.40;;;;;;;34.17;37.84;100848.18;1724126;82;21118;-70
2022/06/28 08:01:08;;;;;;;7.47;4.33;;;;;;;34.27;38.48;100841.84;1739317;82;21031;-70
2022/06/28 08:03:35;;;;;;;9.25;4.95;;;;;;;34.01;38.36;100840.13;1720478;81;21514;-70
2022/06/28 08:06:03;;;;;;;9.45;4.08;;;;;;;34.15;38.12;100839.56;1749490;81;21531;-71
2022/06/28 08:08:32;;;;;;;12.55;4.20;;;;;;;34.03;38.48;100844.73;1750860;81;21055;-71
2022/06/28 08:11:00;;;;;;;8.58;3.80;;;;;;;34.24;37.39;100839.06;1715645;83;21130;-71
2022/06/28 08:13:29;;;;;;;8.18;3.47;;;;;;;34.39;37.20;100836.59;1747446;81;21123;-71
2022/06/28 08:15:58;;;;;;;9.10;3.62;;;;;;;34.44;36.53;100830.09;1723319;83;21090;-71
2022/06/28 08:18:26;;;;;;;10.85;3.20;;;;;;;34.65;36.57;100832.91;1721627;83;21110;-71
2022/06/28 08:20:53;;;;;;;5.97;3.05;;;;;;;34.63;35.15;100833.63;1712672;82;21078;-70
2022/06/28 08:23:21;;;;;;;6.20;3.25;;;;;;;34.48;34.82;100837.97;1741585;81;21083;-71
2022/06/28 08:25:49;;;;;;;7.17;3.27;;;;;;;34.44;35.45;100836.24;1735006;82;21083;-71
2022/06/28 08:28:16;;;;;;;6.62;3.33;;;;;;;34.64;37.15;100824.05;1704027;82;21031;-70
2022/06/28 08:30:44;;;;;;;7.58;3.30;;;;;;;34.54;35.04;100824.25;1700251;84;21020;-71
2022/06/28 08:33:12;;;;;;;7.20;3.30;;;;;;;34.48;36.58;100820.06;1689988;83;21554;-71
2022/06/28 08:35:40;;;;;;;5.33;3.20;;;;;;;34.71;37.18;100823.52;1707884;83;21036;-72
2022/06/28 08:38:08;;;;;;;6.42;3.17;;;;;;;35.06;36.39;100824.83;1702392;83;20987;-70
2022/06/28 08:40:36;;;;;;;4.70;3.20;;;;;;;34.98;36.43;100825.92;1714670;82;21110;-71
2022/06/28 08:43:06;;;;;;;8.00;2.85;;;;;;;34.77;37.29;100827.14;1714791;82;21071;-71
2022/06/28 08:45:37;;;;;;;4.30;2.62;;;;;;;35.02;35.03;100837.01;1707751;83;21480;-71
2022/06/28 08:48:25;;;;;;;6.22;2.65;;;;;;;34.90;34.69;100834.24;1691849;83;21535;-71
2022/06/28 08:50:55;;;;;;;6.12;3.15;;;;;;;34.75;34.61;100835.91;1702137;83;21037;-71
2022/06/28 08:53:24;;;;;;;5.45;2.98;;;;;;;34.22;35.11;100837.64;1711034;82;21011;-71
2022/06/28 08:55:52;;;;;;;5.78;3.30;;;;;;;34.50;34.76;100835.38;1719771;82;20978;-71
2022/06/28 08:58:20;;;;;;;8.93;3.58;;;;;;;34.98;34.89;100831.28;1740818;81;21539;-71
2022/06/28 09:00:49;;;;;;;4.30;2.35;;;;;;;34.97;34.60;100833.64;1729124;82;21039;-71
2022/06/28 09:03:18;;;;;;;6.97;2.77;;;;;;;34.77;34.27;100829.00;1734189;82;21082;-71
2022/06/28 09:05:46;;;;;;;6.80;3.12;;;;;;;34.84;34.88;100829.25;1736838;82;21064;-71
2022/06/28 09:08:14;;;;;;;7.35;2.90;;;;;;;35.23;34.80;100817.84;1724614;82;21056;-71
2022/06/28 09:10:45;;;;;;;4.33;2.60;;;;;;;35.10;34.42;100820.66;1737113;82;21048;-72
2022/06/28 09:13:15;;;;;;;4.17;2.67;;;;;;;35.10;33.64;100825.48;1727534;82;21025;-69
2022/06/28 09:16:00;;;;;;;5.12;2.60;;;;;;;35.14;33.58;100809.81;1733043;82;21602;-69
2022/06/28 09:18:39;;;;;;;5.10;2.70;;;;;;;35.40;33.95;100810.55;1730687;82;21063;-69
2022/06/28 09:21:11;;;;;;;5.92;2.60;;;;;;;35.43;33.63;100804.76;1722572;82;21558;-69
2022/06/28 09:23:45;;;;;;;5.73;2.33;;;;;;;35.38;33.84;100799.25;1718048;82;21047;-70
2022/06/28 09:26:20;;;;;;;3.42;2.47;;;;;;;35.38;34.68;100802.73;1717488;82;21549;-69
2022/06/28 09:28:50;;;;;;;5.10;2.47;;;;;;;35.50;34.45;100808.99;1675962;85;21045;-69
2022/06/28 09:31:24;;;;;;;3.72;2.30;;;;;;;35.21;34.90;100802.54;1674768;85;21028;-69
2022/06/28 09:34:07;;;;;;;3.95;2.10;;;;;;;35.50;35.14;100808.99;1681221;85;21075;-69
2022/06/28 09:36:42;;;;;;;5.83;2.02;;;;;;;35.03;34.44;100811.88;1673675;85;21052;-69
2022/06/28 09:39:18;;;;;;;5.33;2.40;;;;;;;35.40;34.60;100801.18;1675416;84;21103;-69
2022/06/28 09:41:49;;;;;;;4.40;1.90;;;;;;;35.36;34.98;100802.67;1672465;85;21147;-69
2022/06/28 09:44:18;;;;;;;3.33;1.90;;;;;;;35.25;35.25;100800.23;1673474;85;21084;-69
2022/06/28 09:46:46;;;;;;;5.03;2.05;;;;;;;34.71;35.62;100811.48;1659599;85;21072;-69
2022/06/28 09:49:14;;;;;;;4.28;2.00;;;;;;;35.04;35.35;100796.14;1730624;82;21122;-70
2022/06/28 09:51:42;;;;;;;4.67;1.87;;;;;;;35.11;35.56;100790.98;1730533;82;21036;-69
2022/06/28 09:54:10;;;;;;;6.92;1.90;;;;;;;35.14;34.71;100780.88;1733052;82;21021;-69
2022/06/28 09:56:44;;;;;;;6.85;1.98;;;;;;;35.54;35.83;100785.77;1726361;82;21091;-69
2022/06/28 09:59:12;;;;;;;2.83;1.80;;;;;;;35.85;35.37;100782.05;1728981;82;21075;-69
2022/06/28 10:01:40;;;;;;;5.12;1.80;;;;;;;35.69;35.26;100779.00;1727427;82;21110;-69
2022/06/28 10:04:08;;;;;;;1.72;1.62;;;;;;;35.69;34.64;100773.64;1725751;82;21007;-69
2022/06/28 10:06:36;;;;;;;4.03;1.70;;;;;;;35.66;34.88;100772.74;1727531;82;21072;-70
2022/06/28 10:09:06;;;;;;;2.77;1.60;;;;;;;35.44;33.93;100777.73;1732271;82;21088;-69
2022/06/28 10:17:16;;;;;;;7.58;1.60;;;;;;;35.32;33.84;100786.23;1736885;82;21044;-69
2022/06/28 10:19:44;;;;;;;2.70;1.60;;;;;;;35.12;33.73;100779.78;1728256;82;21092;-70
2022/06/28 10:22:12;;;;;;;4.67;1.70;;;;;;;35.42;34.57;100769.65;1736260;82;21099;-69
2022/06/28 10:25:00;;;;;;;4.58;1.80;;;;;;;35.68;33.77;100782.70;1725838;82;21527;-69
2022/06/28 10:27:29;;;;;;;5.10;1.85;;;;;;;35.47;33.64;100781.32;1722757;81;21046;-70
2022/06/28 10:30:08;;;;;;;7.30;1.98;;;;;;;35.67;34.49;100781.09;1730791;81;21523;-69
2022/06/28 10:32:56;;;;;;;6.37;1.60;;;;;;;35.73;34.33;100777.19;1731435;82;21009;-69
2022/06/28 10:35:37;;;;;;;5.55;1.70;;;;;;;35.37;34.32;100781.05;1724123;82;21033;-69
2022/06/28 10:38:16;;;;;;;3.80;1.70;;;;;;;36.01;34.01;100768.52;1745395;82;21032;-70
2022/06/28 10:40:49;;;;;;;6.08;1.60;;;;;;;36.07;35.06;100760.91;1725634;82;21027;-69
2022/06/28 10:43:34;;;;;;;4.70;1.60;;;;;;;36.16;34.45;100763.59;1727490;82;21134;-70
2022/06/28 10:46:09;;;;;;;3.87;1.85;;;;;;;36.30;34.14;100764.19;1729577;82;21094;-69
2022/06/28 10:48:51;;;;;;;3.00;1.57;;;;;;;35.99;33.56;100766.60;1730883;82;21039;-70
2022/06/28 10:51:20;;;;;;;5.05;1.60;;;;;;;36.07;34.24;100752.86;1712889;82;21039;-69
2022/06/28 10:54:07;;;;;;;5.60;1.82;;;;;;;36.03;34.17;100770.45;1724576;82;21094;-69
2022/06/28 10:56:42;;;;;;;3.60;1.77;;;;;;;35.65;33.42;100766.27;1741006;82;21054;-69
2022/06/28 10:59:13;;;;;;;3.75;1.60;;;;;;;35.72;33.44;100765.66;1734589;82;20996;-69
2022/06/28 11:01:48;;;;;;;1.80;1.50;;;;;;;36.33;34.63;100765.58;1730158;83;21103;-68
2022/06/28 11:04:23;;;;;;;4.85;1.52;;;;;;;36.13;33.20;100767.21;1728648;82;21080;-70
2022/06/28 11:06:55;;;;;;;4.42;1.37;;;;;;;36.01;33.05;100753.79;1736972;82;21048;-69
2022/06/28 11:09:53;;;;;;;5.47;1.60;;;;;;;36.32;32.69;100756.72;1718651;82;21059;-69
2022/06/28 11:12:37;;;;;;;2.27;1.50;;;;;;;35.80;33.13;100768.55;1732072;82;21008;-69
2022/06/28 11:15:13;;;;;;;3.17;1.50;;;;;;;36.00;33.07;100748.96;1731695;82;21060;-69
2022/06/28 11:17:44;;;;;;;4.92;1.80;;;;;;;36.27;32.63;100749.36;1724893;82;21027;-69
2022/06/28 11:20:15;;;;;;;3.92;1.57;;;;;;;36.35;32.52;100748.20;1707057;82;21028;-69
2022/06/28 11:22:48;;;;;;;3.83;1.40;;;;;;;36.44;31.96;100744.67;1717722;82;21092;-71
2022/06/28 11:25:18;;;;;;;;;;;;;;;36.54;32.48;100741.38;1737411;82;21111;-72
2022/06/28 11:27:56;;;;;;;4.00;1.50;;;;;;;36.56;33.02;100741.95;1725089;82;20104;-71
2022/06/28 11:30:27;;;;;;;5.35;1.70;;;;;;;36.75;33.77;100733.30;1722638;82;21153;-72
2022/06/28 11:32:57;;;;;;;5.97;1.70;;;;;;;36.91;32.56;100736.58;1732987;82;21083;-72
2022/06/28 11:35:28;;;;;;;3.90;1.60;;;;;;;36.99;33.06;100732.72;1727738;82;21032;-72
2022/06/28 11:38:02;;;;;;;3.35;1.60;;;;;;;37.14;32.98;100732.22;1736782;82;21036;-71
2022/06/28 11:40:49;;;;;;;3.25;1.82;;;;;;;36.96;33.90;100721.91;1733975;82;21107;-72
2022/06/28 11:43:19;;;;;;;3.70;1.87;;;;;;;37.26;33.92;100738.36;1733524;82;21019;-71
2022/06/28 11:45:49;;;;;;;5.22;2.12;;;;;;;37.17;34.10;100726.36;1721537;82;21448;-71
2022/06/28 11:48:24;;;;;;;6.12;2.10;;;;;;;37.57;33.91;100718.23;1727530;81;21040;-71
2022/06/28 11:50:54;;;;;;;3.80;1.90;;;;;;;37.60;33.66;100721.83;1720265;82;21570;-72
2022/06/28 11:53:22;;;;;;;4.10;1.72;;;;;;;37.81;34.38;100716.26;1735041;82;21527;-72
2022/06/28 11:55:59;;;;;;;4.92;1.67;;;;;;;37.98;33.48;100712.75;1728731;82;21096;-71
2022/06/28 11:58:32;;;;;;;4.95;1.92;;;;;;;37.23;33.23;100724.09;1729764;82;21088;-70
2022/06/28 12:01:11;;;;;;;;;;;;;;;37.05;34.10;100727.73;1726454;82;21032;-70
2022/06/28 12:03:47;;;;;;;2.92;2.10;;;;;;;37.16;33.81;100719.38;1733474;82;20398;-71